sensor_id;sensor_type;location;lat;lon;timestamp;pressure;altitude;pressure_sealevel;temperature;humidity
30935;BME280;51033;42.648;23.292;2022-08-01T00:00:08;93809.97;;;19.37;42.84
30935;BME280;51033;42.648;23.292;2022-08-01T00:02:34;93781.50;;;19.40;42.87
30935;BME280;51033;42.648;23.292;2022-08-01T00:04:59;93810.97;;;19.55;42.15
30935;BME280;51033;42.648;23.292;2022-08-01T00:07:27;93667.28;;;18.55;41.95
30935;BME280;51033;42.648;23.292;2022-08-01T00:09:53;93780.81;;;19.46;41.67
30935;BME280;51033;42.648;23.292;2022-08-01T00:12:18;93783.81;;;19.41;41.27
30935;BME280;51033;42.648;23.292;2022-08-01T00:14:43;93782.44;;;19.54;41.01
30935;BME280;51033;42.648;23.292;2022-08-01T00:17:09;93764.13;;;19.37;40.65
30935;BME280;51033;42.648;23.292;2022-08-01T00:19:34;93795.13;;;19.50;40.59
30935;BME280;51033;42.648;23.292;2022-08-01T00:22:00;93791.78;;;19.64;40.38
30935;BME280;51033;42.648;23.292;2022-08-01T00:24:26;93787.88;;;19.58;41.04
30935;BME280;51033;42.648;23.292;2022-08-01T00:26:51;93767.88;;;19.62;39.80
30935;BME280;51033;42.648;23.292;2022-08-01T00:29:17;93796.06;;;19.68;39.92
30935;BME280;51033;42.648;23.292;2022-08-01T00:31:42;93777.00;;;19.51;40.34
30935;BME280;51033;42.648;23.292;2022-08-01T00:34:08;93790.81;;;19.46;40.47
30935;BME280;51033;42.648;23.292;2022-08-01T00:36:33;93777.38;;;19.16;40.75
30935;BME280;51033;42.648;23.292;2022-08-01T00:38:59;93786.59;;;19.45;40.26
30935;BME280;51033;42.648;23.292;2022-08-01T00:41:24;93773.44;;;19.43;40.35
30935;BME280;51033;42.648;23.292;2022-08-01T00:43:50;93767.84;;;19.59;39.49
30935;BME280;51033;42.648;23.292;2022-08-01T00:46:15;93786.06;;;19.69;39.68
30935;BME280;51033;42.648;23.292;2022-08-01T00:48:40;93790.44;;;19.84;39.97
30935;BME280;51033;42.648;23.292;2022-08-01T00:51:07;93796.41;;;20.04;40.13
30935;BME280;51033;42.648;23.292;2022-08-01T00:53:33;93788.16;;;19.90;39.76
30935;BME280;51033;42.648;23.292;2022-08-01T00:56:01;93775.72;;;19.74;40.43
30935;BME280;51033;42.648;23.292;2022-08-01T00:58:27;93759.53;;;19.74;40.11
30935;BME280;51033;42.648;23.292;2022-08-01T01:03:22;93796.91;;;20.16;40.05
30935;BME280;51033;42.648;23.292;2022-08-01T01:08:46;93786.06;;;20.13;40.13
30935;BME280;51033;42.648;23.292;2022-08-01T01:11:25;93773.94;;;19.93;40.04
30935;BME280;51033;42.648;23.292;2022-08-01T01:13:57;93756.59;;;19.94;39.79
30935;BME280;51033;42.648;23.292;2022-08-01T01:16:23;93768.19;;;19.94;39.58
30935;BME280;51033;42.648;23.292;2022-08-01T01:18:53;93638.09;;;18.90;39.50
30935;BME280;51033;42.648;23.292;2022-08-01T01:24:01;93775.81;;;19.45;40.22
30935;BME280;51033;42.648;23.292;2022-08-01T01:26:45;93760.13;;;19.57;40.02
30935;BME280;51033;42.648;23.292;2022-08-01T01:29:31;93747.03;;;19.59;39.87
30935;BME280;51033;42.648;23.292;2022-08-01T01:34:32;93755.38;;;19.47;39.32
30935;BME280;51033;42.648;23.292;2022-08-01T01:37:01;93735.38;;;19.48;39.45
30935;BME280;51033;42.648;23.292;2022-08-01T01:39:28;93742.75;;;19.55;38.48
30935;BME280;51033;42.648;23.292;2022-08-01T01:41:55;93732.25;;;19.46;36.63
30935;BME280;51033;42.648;23.292;2022-08-01T01:44:23;93733.03;;;19.47;35.96
30935;BME280;51033;42.648;23.292;2022-08-01T01:46:51;93723.50;;;19.19;36.18
30935;BME280;51033;42.648;23.292;2022-08-01T01:49:21;93750.94;;;18.95;35.80
30935;BME280;51033;42.648;23.292;2022-08-01T01:51:50;93716.97;;;18.57;36.38
30935;BME280;51033;42.648;23.292;2022-08-01T01:54:17;93750.44;;;18.86;36.29
30935;BME280;51033;42.648;23.292;2022-08-01T01:56:43;93746.06;;;19.08;36.17
30935;BME280;51033;42.648;23.292;2022-08-01T01:59:19;93753.34;;;19.04;35.31
30935;BME280;51033;42.648;23.292;2022-08-01T02:01:47;93730.31;;;18.76;35.76
30935;BME280;51033;42.648;23.292;2022-08-01T02:04:15;93745.91;;;18.94;35.38
30935;BME280;51033;42.648;23.292;2022-08-01T02:06:42;93746.50;;;19.10;35.75
30935;BME280;51033;42.648;23.292;2022-08-01T02:09:08;93700.31;;;19.11;35.47
30935;BME280;51033;42.648;23.292;2022-08-01T02:11:36;93699.34;;;19.30;34.71
30935;BME280;51033;42.648;23.292;2022-08-01T02:14:03;93729.34;;;19.65;34.29
30935;BME280;51033;42.648;23.292;2022-08-01T02:16:33;93731.84;;;19.85;33.88
30935;BME280;51033;42.648;23.292;2022-08-01T02:18:59;93707.56;;;19.85;33.40
30935;BME280;51033;42.648;23.292;2022-08-01T02:21:38;93714.34;;;19.64;32.95
30935;BME280;51033;42.648;23.292;2022-08-01T02:24:13;93704.72;;;19.67;33.41
30935;BME280;51033;42.648;23.292;2022-08-01T02:26:44;93703.13;;;19.62;33.66
30935;BME280;51033;42.648;23.292;2022-08-01T02:29:16;93722.81;;;19.66;33.10
30935;BME280;51033;42.648;23.292;2022-08-01T02:31:45;93716.50;;;19.48;33.04
30935;BME280;51033;42.648;23.292;2022-08-01T02:34:15;93722.88;;;19.37;34.23
30935;BME280;51033;42.648;23.292;2022-08-01T02:36:43;93708.06;;;19.16;34.07
30935;BME280;51033;42.648;23.292;2022-08-01T02:39:13;93732.09;;;19.32;34.25
30935;BME280;51033;42.648;23.292;2022-08-01T02:41:43;93714.44;;;19.01;34.54
30935;BME280;51033;42.648;23.292;2022-08-01T02:44:39;93710.31;;;19.11;34.40
30935;BME280;51033;42.648;23.292;2022-08-01T02:47:03;93721.97;;;18.88;35.11
30935;BME280;51033;42.648;23.292;2022-08-01T02:49:55;93716.56;;;18.85;35.85
30935;BME280;51033;42.648;23.292;2022-08-01T02:52:24;93700.81;;;18.57;35.67
30935;BME280;51033;42.648;23.292;2022-08-01T02:54:53;93695.63;;;18.45;36.39
30935;BME280;51033;42.648;23.292;2022-08-01T02:57:21;93684.66;;;18.27;36.34
30935;BME280;51033;42.648;23.292;2022-08-01T02:59:47;93724.78;;;18.39;37.14
30935;BME280;51033;42.648;23.292;2022-08-01T03:02:15;93697.81;;;18.36;36.93
30935;BME280;51033;42.648;23.292;2022-08-01T03:04:41;93702.13;;;18.40;36.88
30935;BME280;51033;42.648;23.292;2022-08-01T03:07:08;93697.78;;;18.32;36.86
30935;BME280;51033;42.648;23.292;2022-08-01T03:09:40;93709.53;;;18.47;37.70
30935;BME280;51033;42.648;23.292;2022-08-01T03:12:11;93694.19;;;18.51;36.83
30935;BME280;51033;42.648;23.292;2022-08-01T03:14:40;93698.56;;;18.33;37.42
30935;BME280;51033;42.648;23.292;2022-08-01T03:17:08;93689.25;;;18.27;37.33
30935;BME280;51033;42.648;23.292;2022-08-01T03:19:35;93708.91;;;18.31;37.12
30935;BME280;51033;42.648;23.292;2022-08-01T03:22:08;93699.19;;;18.23;37.34
30935;BME280;51033;42.648;23.292;2022-08-01T03:24:36;93722.56;;;18.45;37.16
30935;BME280;51033;42.648;23.292;2022-08-01T03:27:03;93700.09;;;18.34;37.52
30935;BME280;51033;42.648;23.292;2022-08-01T03:29:29;93721.06;;;18.48;37.41
30935;BME280;51033;42.648;23.292;2022-08-01T03:31:57;93715.56;;;18.67;37.23
30935;BME280;51033;42.648;23.292;2022-08-01T03:34:25;93726.28;;;18.93;37.09
30935;BME280;51033;42.648;23.292;2022-08-01T03:37:05;93725.47;;;18.89;37.06
30935;BME280;51033;42.648;23.292;2022-08-01T03:39:47;93732.53;;;19.01;36.97
30935;BME280;51033;42.648;23.292;2022-08-01T03:42:20;93710.81;;;18.86;36.72
30935;BME280;51033;42.648;23.292;2022-08-01T03:45:02;93731.31;;;18.68;37.46
30935;BME280;51033;42.648;23.292;2022-08-01T03:47:32;93713.13;;;18.88;37.41
30935;BME280;51033;42.648;23.292;2022-08-01T03:50:02;93704.22;;;19.17;37.58
30935;BME280;51033;42.648;23.292;2022-08-01T03:52:30;93719.91;;;19.08;37.11
30935;BME280;51033;42.648;23.292;2022-08-01T03:55:01;93724.28;;;18.86;37.25
30935;BME280;51033;42.648;23.292;2022-08-01T03:57:29;93679.38;;;18.68;37.99
30935;BME280;51033;42.648;23.292;2022-08-01T03:59:57;93718.72;;;19.06;37.63
30935;BME280;51033;42.648;23.292;2022-08-01T04:02:25;93722.31;;;18.83;37.55
30935;BME280;51033;42.648;23.292;2022-08-01T04:04:51;93723.13;;;18.87;37.60
30935;BME280;51033;42.648;23.292;2022-08-01T04:07:31;93722.47;;;18.98;37.63
30935;BME280;51033;42.648;23.292;2022-08-01T04:09:57;93711.13;;;18.81;37.59
30935;BME280;51033;42.648;23.292;2022-08-01T04:12:23;93730.16;;;18.66;37.64
30935;BME280;51033;42.648;23.292;2022-08-01T04:14:49;93728.25;;;18.66;37.90
30935;BME280;51033;42.648;23.292;2022-08-01T04:17:17;93709.22;;;18.52;37.97
30935;BME280;51033;42.648;23.292;2022-08-01T04:19:45;93694.00;;;18.37;37.81
30935;BME280;51033;42.648;23.292;2022-08-01T04:22:13;93727.88;;;18.38;38.40
30935;BME280;51033;42.648;23.292;2022-08-01T04:24:39;93692.09;;;18.37;38.92
30935;BME280;51033;42.648;23.292;2022-08-01T04:27:09;93714.97;;;18.80;38.20
30935;BME280;51033;42.648;23.292;2022-08-01T04:29:36;93733.56;;;18.93;38.84
30935;BME280;51033;42.648;23.292;2022-08-01T04:32:03;93734.00;;;18.95;38.43
30935;BME280;51033;42.648;23.292;2022-08-01T04:34:31;93716.72;;;18.69;38.07
30935;BME280;51033;42.648;23.292;2022-08-01T04:36:59;93729.78;;;18.67;38.66
30935;BME280;51033;42.648;23.292;2022-08-01T04:39:28;93727.47;;;18.66;38.19
30935;BME280;51033;42.648;23.292;2022-08-01T04:42:00;93725.31;;;18.78;38.22
30935;BME280;51033;42.648;23.292;2022-08-01T04:44:29;93732.19;;;18.72;39.15
30935;BME280;51033;42.648;23.292;2022-08-01T04:47:00;93735.53;;;18.66;38.81
30935;BME280;51033;42.648;23.292;2022-08-01T04:49:31;93723.38;;;18.75;38.50
30935;BME280;51033;42.648;23.292;2022-08-01T04:51:56;93707.00;;;18.91;38.98
30935;BME280;51033;42.648;23.292;2022-08-01T04:54:30;93723.84;;;19.18;38.01
30935;BME280;51033;42.648;23.292;2022-08-01T04:57:00;93727.06;;;18.94;38.17
30935;BME280;51033;42.648;23.292;2022-08-01T04:59:26;93733.84;;;18.80;38.66
30935;BME280;51033;42.648;23.292;2022-08-01T05:02:15;93738.09;;;19.15;39.54
30935;BME280;51033;42.648;23.292;2022-08-01T05:04:41;93731.78;;;19.04;38.65
30935;BME280;51033;42.648;23.292;2022-08-01T05:07:08;93731.66;;;18.93;39.32
30935;BME280;51033;42.648;23.292;2022-08-01T05:09:34;93717.19;;;19.05;38.63
30935;BME280;51033;42.648;23.292;2022-08-01T05:12:01;93715.00;;;19.17;38.51
30935;BME280;51033;42.648;23.292;2022-08-01T05:14:28;93716.06;;;19.46;39.09
30935;BME280;51033;42.648;23.292;2022-08-01T05:17:00;93725.19;;;19.35;39.05
30935;BME280;51033;42.648;23.292;2022-08-01T05:19:29;93728.16;;;19.59;39.27
30935;BME280;51033;42.648;23.292;2022-08-01T05:21:57;93730.06;;;19.55;37.30
30935;BME280;51033;42.648;23.292;2022-08-01T05:24:23;93719.34;;;19.66;37.82
30935;BME280;51033;42.648;23.292;2022-08-01T05:26:48;93724.59;;;19.48;37.57
30935;BME280;51033;42.648;23.292;2022-08-01T05:29:14;93728.19;;;19.63;38.03
30935;BME280;51033;42.648;23.292;2022-08-01T05:31:40;93711.88;;;19.49;38.20
30935;BME280;51033;42.648;23.292;2022-08-01T05:34:05;93717.63;;;19.91;38.31
30935;BME280;51033;42.648;23.292;2022-08-01T05:36:31;93719.28;;;20.06;37.82
30935;BME280;51033;42.648;23.292;2022-08-01T05:38:56;93709.66;;;19.58;37.21
30935;BME280;51033;42.648;23.292;2022-08-01T05:41:21;93726.63;;;19.62;37.61
30935;BME280;51033;42.648;23.292;2022-08-01T05:43:47;93715.53;;;19.70;38.10
30935;BME280;51033;42.648;23.292;2022-08-01T05:46:12;93708.88;;;19.57;37.71
30935;BME280;51033;42.648;23.292;2022-08-01T05:48:38;93698.59;;;19.33;38.21
30935;BME280;51033;42.648;23.292;2022-08-01T05:51:04;93728.50;;;19.54;38.48
30935;BME280;51033;42.648;23.292;2022-08-01T05:53:29;93724.00;;;19.32;38.74
30935;BME280;51033;42.648;23.292;2022-08-01T05:55:55;93714.88;;;19.44;38.69
30935;BME280;51033;42.648;23.292;2022-08-01T05:58:20;93713.63;;;19.34;38.34
30935;BME280;51033;42.648;23.292;2022-08-01T06:00:46;93726.69;;;19.32;39.08
30935;BME280;51033;42.648;23.292;2022-08-01T06:03:11;93712.72;;;19.19;39.11
30935;BME280;51033;42.648;23.292;2022-08-01T06:05:37;93720.78;;;19.16;39.30
30935;BME280;51033;42.648;23.292;2022-08-01T06:08:03;93728.19;;;18.93;39.43
30935;BME280;51033;42.648;23.292;2022-08-01T06:10:28;93721.16;;;18.84;39.26
30935;BME280;51033;42.648;23.292;2022-08-01T06:12:54;93744.03;;;18.98;39.58
30935;BME280;51033;42.648;23.292;2022-08-01T06:15:19;93708.84;;;18.83;39.95
30935;BME280;51033;42.648;23.292;2022-08-01T06:17:44;93744.44;;;19.00;39.79
30935;BME280;51033;42.648;23.292;2022-08-01T06:20:10;93729.28;;;19.21;39.60
30935;BME280;51033;42.648;23.292;2022-08-01T06:22:35;93717.25;;;19.12;40.16
30935;BME280;51033;42.648;23.292;2022-08-01T06:25:01;93743.97;;;19.61;40.18
30935;BME280;51033;42.648;23.292;2022-08-01T06:27:26;93738.34;;;19.40;38.93
30935;BME280;51033;42.648;23.292;2022-08-01T06:29:52;93674.19;;;18.82;39.41
30935;BME280;51033;42.648;23.292;2022-08-01T06:32:21;93733.63;;;19.29;39.34
30935;BME280;51033;42.648;23.292;2022-08-01T06:34:51;93722.06;;;19.29;40.33
30935;BME280;51033;42.648;23.292;2022-08-01T06:37:16;93722.84;;;19.29;40.26
30935;BME280;51033;42.648;23.292;2022-08-01T06:39:42;93716.56;;;19.22;39.85
30935;BME280;51033;42.648;23.292;2022-08-01T06:42:07;93716.78;;;19.43;39.82
30935;BME280;51033;42.648;23.292;2022-08-01T06:44:34;93730.88;;;19.63;40.19
30935;BME280;51033;42.648;23.292;2022-08-01T06:47:00;93730.88;;;19.59;39.79
30935;BME280;51033;42.648;23.292;2022-08-01T06:49:26;93713.88;;;19.55;40.19
30935;BME280;51033;42.648;23.292;2022-08-01T06:51:51;93728.19;;;19.63;40.08
30935;BME280;51033;42.648;23.292;2022-08-01T06:54:17;93724.72;;;19.66;40.00
30935;BME280;51033;42.648;23.292;2022-08-01T06:56:42;93727.06;;;19.67;39.90
30935;BME280;51033;42.648;23.292;2022-08-01T06:59:08;93708.63;;;19.36;40.28
30935;BME280;51033;42.648;23.292;2022-08-01T07:01:33;93695.28;;;19.47;40.35
30935;BME280;51033;42.648;23.292;2022-08-01T07:03:59;93710.13;;;19.70;40.43
30935;BME280;51033;42.648;23.292;2022-08-01T07:06:25;93711.28;;;19.69;40.16
30935;BME280;51033;42.648;23.292;2022-08-01T07:08:54;93717.09;;;19.75;40.73
30935;BME280;51033;42.648;23.292;2022-08-01T07:11:20;93707.72;;;19.58;41.16
30935;BME280;51033;42.648;23.292;2022-08-01T07:13:46;93708.09;;;19.60;42.06
30935;BME280;51033;42.648;23.292;2022-08-01T07:16:13;93705.91;;;19.69;41.17
30935;BME280;51033;42.648;23.292;2022-08-01T07:18:38;93725.69;;;19.84;41.32
30935;BME280;51033;42.648;23.292;2022-08-01T07:21:03;93710.41;;;19.58;40.82
30935;BME280;51033;42.648;23.292;2022-08-01T07:23:29;93705.22;;;19.43;41.79
30935;BME280;51033;42.648;23.292;2022-08-01T07:25:54;93706.91;;;19.54;42.27
30935;BME280;51033;42.648;23.292;2022-08-01T07:28:20;93709.47;;;19.40;42.35
30935;BME280;51033;42.648;23.292;2022-08-01T07:30:45;93725.81;;;19.54;41.85
30935;BME280;51033;42.648;23.292;2022-08-01T07:33:11;93725.38;;;19.52;41.35
30935;BME280;51033;42.648;23.292;2022-08-01T07:35:37;93723.97;;;19.65;41.48
30935;BME280;51033;42.648;23.292;2022-08-01T07:38:04;93728.97;;;19.63;41.82
30935;BME280;51033;42.648;23.292;2022-08-01T07:40:30;93727.28;;;19.48;41.45
30935;BME280;51033;42.648;23.292;2022-08-01T07:42:55;93717.38;;;19.59;41.48
30935;BME280;51033;42.648;23.292;2022-08-01T07:45:21;93719.19;;;19.48;41.10
30935;BME280;51033;42.648;23.292;2022-08-01T07:47:46;93731.44;;;19.42;40.36
30935;BME280;51033;42.648;23.292;2022-08-01T07:50:12;93733.44;;;19.45;40.67
30935;BME280;51033;42.648;23.292;2022-08-01T07:52:38;93728.84;;;19.49;41.74
30935;BME280;51033;42.648;23.292;2022-08-01T07:55:04;93702.16;;;19.41;41.92
30935;BME280;51033;42.648;23.292;2022-08-01T07:57:29;93740.59;;;19.71;41.60
30935;BME280;51033;42.648;23.292;2022-08-01T07:59:55;93713.22;;;19.69;41.29
30935;BME280;51033;42.648;23.292;2022-08-01T08:02:20;93742.81;;;20.06;41.79
30935;BME280;51033;42.648;23.292;2022-08-01T08:04:46;93741.88;;;20.32;41.69
30935;BME280;51033;42.648;23.292;2022-08-01T08:07:11;93734.09;;;20.23;40.66
30935;BME280;51033;42.648;23.292;2022-08-01T08:09:36;93721.28;;;20.13;40.74
30935;BME280;51033;42.648;23.292;2022-08-01T08:12:02;93731.66;;;20.11;39.79
30935;BME280;51033;42.648;23.292;2022-08-01T08:14:27;93732.78;;;20.06;40.59
30935;BME280;51033;42.648;23.292;2022-08-01T08:16:54;93718.94;;;20.15;40.19
30935;BME280;51033;42.648;23.292;2022-08-01T08:19:19;93714.56;;;19.93;40.55
30935;BME280;51033;42.648;23.292;2022-08-01T08:21:45;93720.91;;;19.70;40.85
30935;BME280;51033;42.648;23.292;2022-08-01T08:24:11;93734.03;;;19.68;40.22
30935;BME280;51033;42.648;23.292;2022-08-01T08:26:51;93719.41;;;19.73;40.57
30935;BME280;51033;42.648;23.292;2022-08-01T08:29:18;93724.84;;;19.77;41.30
30935;BME280;51033;42.648;23.292;2022-08-01T08:31:44;93729.50;;;19.80;40.44
30935;BME280;51033;42.648;23.292;2022-08-01T08:34:10;93710.47;;;19.65;40.69
30935;BME280;51033;42.648;23.292;2022-08-01T08:36:36;93710.53;;;19.69;40.66
30935;BME280;51033;42.648;23.292;2022-08-01T08:39:02;93719.81;;;19.75;42.07
30935;BME280;51033;42.648;23.292;2022-08-01T08:41:32;93723.09;;;19.54;40.76
30935;BME280;51033;42.648;23.292;2022-08-01T08:43:57;93722.44;;;19.64;40.93
30935;BME280;51033;42.648;23.292;2022-08-01T08:46:25;93717.88;;;19.75;41.00
30935;BME280;51033;42.648;23.292;2022-08-01T08:48:52;93722.56;;;19.82;41.25
30935;BME280;51033;42.648;23.292;2022-08-01T08:51:18;93724.66;;;20.03;40.14
30935;BME280;51033;42.648;23.292;2022-08-01T08:53:46;93698.69;;;19.84;40.59
30935;BME280;51033;42.648;23.292;2022-08-01T08:56:13;93727.34;;;19.99;39.26
30935;BME280;51033;42.648;23.292;2022-08-01T08:58:40;93673.97;;;19.79;39.60
30935;BME280;51033;42.648;23.292;2022-08-01T09:01:08;93722.69;;;20.00;39.65
30935;BME280;51033;42.648;23.292;2022-08-01T09:03:34;93708.81;;;19.98;40.51
30935;BME280;51033;42.648;23.292;2022-08-01T09:05:59;93728.97;;;20.11;39.01
30935;BME280;51033;42.648;23.292;2022-08-01T09:08:25;93707.25;;;19.97;38.78
30935;BME280;51033;42.648;23.292;2022-08-01T09:10:50;93715.78;;;19.99;38.89
30935;BME280;51033;42.648;23.292;2022-08-01T09:13:15;93690.34;;;20.03;39.52
30935;BME280;51033;42.648;23.292;2022-08-01T09:18:43;93686.78;;;19.89;38.74
30935;BME280;51033;42.648;23.292;2022-08-01T09:23:46;93694.38;;;20.27;40.46
30935;BME280;51033;42.648;23.292;2022-08-01T09:26:13;93695.66;;;20.47;41.05
30935;BME280;51033;42.648;23.292;2022-08-01T09:28:40;93682.81;;;20.30;39.50
30935;BME280;51033;42.648;23.292;2022-08-01T09:31:12;93694.19;;;20.60;38.35
30935;BME280;51033;42.648;23.292;2022-08-01T09:33:58;93707.69;;;20.57;38.76
30935;BME280;51033;42.648;23.292;2022-08-01T09:36:27;93709.91;;;20.44;39.21
30935;BME280;51033;42.648;23.292;2022-08-01T09:39:18;93687.56;;;20.51;39.52
30935;BME280;51033;42.648;23.292;2022-08-01T09:41:44;93681.41;;;20.54;39.91
30935;BME280;51033;42.648;23.292;2022-08-01T09:44:09;93665.53;;;20.45;40.31
30935;BME280;51033;42.648;23.292;2022-08-01T09:46:35;93694.66;;;20.84;40.03
30935;BME280;51033;42.648;23.292;2022-08-01T09:49:05;93691.91;;;20.70;40.24
30935;BME280;51033;42.648;23.292;2022-08-01T09:51:36;93700.41;;;20.75;41.21
30935;BME280;51033;42.648;23.292;2022-08-01T09:54:04;93697.69;;;20.68;40.47
30935;BME280;51033;42.648;23.292;2022-08-01T09:56:40;93687.25;;;20.67;40.88
30935;BME280;51033;42.648;23.292;2022-08-01T09:59:11;93694.59;;;20.73;41.17
30935;BME280;51033;42.648;23.292;2022-08-01T10:01:45;93686.16;;;20.82;41.73
30935;BME280;51033;42.648;23.292;2022-08-01T10:04:12;93696.28;;;20.92;40.62
30935;BME280;51033;42.648;23.292;2022-08-01T10:06:39;93679.31;;;21.02;40.38
30935;BME280;51033;42.648;23.292;2022-08-01T10:09:05;93693.25;;;21.18;39.09
30935;BME280;51033;42.648;23.292;2022-08-01T10:11:31;93688.22;;;21.10;39.52
30935;BME280;51033;42.648;23.292;2022-08-01T10:13:59;93699.03;;;21.13;39.39
30935;BME280;51033;42.648;23.292;2022-08-01T10:16:26;93659.19;;;20.89;39.98
30935;BME280;51033;42.648;23.292;2022-08-01T10:18:54;93653.78;;;20.89;39.58
30935;BME280;51033;42.648;23.292;2022-08-01T10:21:20;93682.78;;;20.99;39.56
30935;BME280;51033;42.648;23.292;2022-08-01T10:23:47;93690.03;;;20.84;39.69
30935;BME280;51033;42.648;23.292;2022-08-01T10:26:13;93654.06;;;20.70;40.50
30935;BME280;51033;42.648;23.292;2022-08-01T10:28:40;93656.88;;;20.98;40.53
30935;BME280;51033;42.648;23.292;2022-08-01T10:31:07;93662.38;;;21.30;39.92
30935;BME280;51033;42.648;23.292;2022-08-01T10:33:33;93650.03;;;21.50;38.78
30935;BME280;51033;42.648;23.292;2022-08-01T10:36:01;93663.59;;;21.57;37.91
30935;BME280;51033;42.648;23.292;2022-08-01T10:38:27;93653.09;;;21.34;37.43
30935;BME280;51033;42.648;23.292;2022-08-01T10:40:54;93641.91;;;21.25;37.49
30935;BME280;51033;42.648;23.292;2022-08-01T10:43:22;93673.97;;;21.37;38.12
30935;BME280;51033;42.648;23.292;2022-08-01T10:45:48;93654.66;;;21.35;38.38
30935;BME280;51033;42.648;23.292;2022-08-01T10:48:21;93668.63;;;21.59;38.33
30935;BME280;51033;42.648;23.292;2022-08-01T10:50:52;93677.47;;;21.49;37.39
30935;BME280;51033;42.648;23.292;2022-08-01T10:53:19;93673.22;;;21.40;37.39
30935;BME280;51033;42.648;23.292;2022-08-01T10:58:10;93478.38;;;20.27;38.11
30935;BME280;51033;42.648;23.292;2022-08-01T11:00:36;93652.72;;;21.46;37.79
30935;BME280;51033;42.648;23.292;2022-08-01T11:03:03;93665.50;;;21.50;37.99
30935;BME280;51033;42.648;23.292;2022-08-01T11:05:35;93652.34;;;21.30;38.49
30935;BME280;51033;42.648;23.292;2022-08-01T11:08:21;93665.09;;;21.51;38.51
30935;BME280;51033;42.648;23.292;2022-08-01T11:10:47;93660.06;;;21.53;38.91
30935;BME280;51033;42.648;23.292;2022-08-01T11:13:13;93647.69;;;21.34;37.80
30935;BME280;51033;42.648;23.292;2022-08-01T11:15:39;93647.72;;;21.49;37.55
30935;BME280;51033;42.648;23.292;2022-08-01T11:21:01;93648.47;;;21.53;38.86
30935;BME280;51033;42.648;23.292;2022-08-01T11:23:28;93631.44;;;21.13;37.99
30935;BME280;51033;42.648;23.292;2022-08-01T11:28:22;93658.53;;;21.31;38.32
30935;BME280;51033;42.648;23.292;2022-08-01T11:38:36;93648.50;;;21.45;39.02
30935;BME280;51033;42.648;23.292;2022-08-01T11:41:15;93646.16;;;21.48;38.64
30935;BME280;51033;42.648;23.292;2022-08-01T11:46:57;93638.44;;;21.46;39.72
30935;BME280;51033;42.648;23.292;2022-08-01T11:54:55;93643.50;;;21.58;39.61
30935;BME280;51033;42.648;23.292;2022-08-01T11:57:28;93634.97;;;21.77;39.23
30935;BME280;51033;42.648;23.292;2022-08-01T11:59:57;93621.44;;;21.77;38.84
30935;BME280;51033;42.648;23.292;2022-08-01T12:02:33;93628.00;;;21.91;39.13
30935;BME280;51033;42.648;23.292;2022-08-01T12:07:31;93623.38;;;21.66;38.49
30935;BME280;51033;42.648;23.292;2022-08-01T12:10:04;93626.84;;;21.81;38.44
30935;BME280;51033;42.648;23.292;2022-08-01T12:12:31;93560.38;;;21.41;38.76
30935;BME280;51033;42.648;23.292;2022-08-01T12:15:06;93622.22;;;21.85;38.10
30935;BME280;51033;42.648;23.292;2022-08-01T12:17:46;93630.72;;;21.87;37.74
30935;BME280;51033;42.648;23.292;2022-08-01T12:20:13;93642.31;;;21.95;38.15
30935;BME280;51033;42.648;23.292;2022-08-01T12:22:39;93605.22;;;21.74;38.70
30935;BME280;51033;42.648;23.292;2022-08-01T12:25:16;93645.38;;;22.00;37.79
30935;BME280;51033;42.648;23.292;2022-08-01T12:27:44;93643.06;;;22.02;38.15
30935;BME280;51033;42.648;23.292;2022-08-01T12:30:15;93640.72;;;22.11;37.51
30935;BME280;51033;42.648;23.292;2022-08-01T12:32:42;93619.47;;;22.06;38.14
30935;BME280;51033;42.648;23.292;2022-08-01T12:35:19;93632.22;;;22.16;37.25
30935;BME280;51033;42.648;23.292;2022-08-01T12:37:49;93621.41;;;21.92;38.26
30935;BME280;51033;42.648;23.292;2022-08-01T12:40:20;93642.34;;;21.84;38.12
30935;BME280;51033;42.648;23.292;2022-08-01T12:42:53;93651.22;;;21.84;38.26
30935;BME280;51033;42.648;23.292;2022-08-01T12:45:21;93637.31;;;21.79;38.33
30935;BME280;51033;42.648;23.292;2022-08-01T12:47:51;93633.03;;;21.96;38.22
30935;BME280;51033;42.648;23.292;2022-08-01T12:50:22;93644.22;;;22.05;37.71
30935;BME280;51033;42.648;23.292;2022-08-01T12:52:49;93640.00;;;22.04;37.76
30935;BME280;51033;42.648;23.292;2022-08-01T12:55:16;93635.72;;;22.06;37.70
30935;BME280;51033;42.648;23.292;2022-08-01T12:57:45;93636.09;;;22.19;37.57
30935;BME280;51033;42.648;23.292;2022-08-01T13:00:21;93633.81;;;22.00;37.18
30935;BME280;51033;42.648;23.292;2022-08-01T13:02:48;93621.81;;;21.97;37.87
30935;BME280;51033;42.648;23.292;2022-08-01T13:05:15;93625.25;;;22.12;37.81
30935;BME280;51033;42.648;23.292;2022-08-01T13:07:49;93632.19;;;22.20;36.70
30935;BME280;51033;42.648;23.292;2022-08-01T13:10:25;93626.75;;;22.41;36.52
30935;BME280;51033;42.648;23.292;2022-08-01T13:12:52;93632.88;;;22.59;36.66
30935;BME280;51033;42.648;23.292;2022-08-01T13:15:25;93620.41;;;22.80;37.36
30935;BME280;51033;42.648;23.292;2022-08-01T13:17:52;93609.50;;;22.94;36.44
30935;BME280;51033;42.648;23.292;2022-08-01T13:20:32;93629.25;;;22.98;36.20
30935;BME280;51033;42.648;23.292;2022-08-01T13:23:16;93618.06;;;22.92;36.24
30935;BME280;51033;42.648;23.292;2022-08-01T13:25:54;93614.94;;;22.97;36.15
30935;BME280;51033;42.648;23.292;2022-08-01T13:28:25;93622.56;;;23.17;35.47
30935;BME280;51033;42.648;23.292;2022-08-01T13:31:01;93616.41;;;23.09;36.13
30935;BME280;51033;42.648;23.292;2022-08-01T13:33:38;93621.72;;;23.23;36.30
30935;BME280;51033;42.648;23.292;2022-08-01T13:36:06;93608.75;;;23.48;35.26
30935;BME280;51033;42.648;23.292;2022-08-01T13:38:31;93593.97;;;23.60;35.77